createdAt,value
2016-11-27T00:00:27.237Z,4
2016-11-27T00:01:39.220Z,4
2016-11-27T00:02:50.443Z,4
2016-11-27T00:04:02.674Z,4
2016-11-27T00:05:14.237Z,4
2016-11-27T00:06:26.781Z,4
2016-11-27T00:07:38.515Z,4
2016-11-27T00:08:50.586Z,4
2016-11-27T00:10:02.283Z,4
2016-11-27T00:11:13.968Z,4
2016-11-27T00:12:24.925Z,4
2016-11-27T00:13:37.183Z,4
2016-11-27T00:14:48.924Z,4
2016-11-27T00:15:58.898Z,4
2016-11-27T00:17:12.186Z,4
2016-11-27T00:18:24.034Z,4
2016-11-27T00:19:36.833Z,4
2016-11-27T00:20:48.831Z,4
2016-11-27T00:22:01.467Z,4
2016-11-27T00:23:12.449Z,4
2016-11-27T00:24:22.915Z,4
2016-11-27T00:25:34.607Z,4
2016-11-27T00:26:46.294Z,4
2016-11-27T00:27:58.124Z,4
2016-11-27T00:29:10.413Z,4
2016-11-27T00:30:22.105Z,4
2016-11-27T00:31:33.542Z,4
2016-11-27T00:32:46.265Z,4
2016-11-27T00:33:57.168Z,4
2016-11-27T00:35:08.727Z,4
2016-11-27T00:36:22.034Z,4
2016-11-27T00:37:34.512Z,4
2016-11-27T00:38:46.697Z,4
2016-11-27T00:39:57.622Z,4
2016-11-27T00:41:08.655Z,4
2016-11-27T00:42:20.873Z,4
2016-11-27T00:43:33.020Z,4
2016-11-27T00:44:44.575Z,4
2016-11-27T00:45:56.795Z,4
2016-11-27T00:47:09.345Z,4
2016-11-27T00:48:21.297Z,4
2016-11-27T00:49:33.352Z,4
2016-11-27T00:50:44.228Z,4
2016-11-27T00:51:56.257Z,4
2016-11-27T00:53:09.064Z,4
2016-11-27T00:54:21.243Z,4
2016-11-27T00:55:33.282Z,4
2016-11-27T00:56:46.165Z,4
2016-11-27T00:57:57.461Z,4
2016-11-27T00:59:09.574Z,8
2016-11-27T01:00:21.242Z,4
2016-11-27T01:01:31.685Z,4
2016-11-27T01:02:43.664Z,4
2016-11-27T01:03:56.149Z,8
2016-11-27T01:05:07.401Z,4
2016-11-27T01:06:19.022Z,4
2016-11-27T01:07:29.073Z,4
2016-11-27T01:08:40.945Z,4
2016-11-27T01:09:53.019Z,4
2016-11-27T01:11:04.168Z,4
2016-11-27T01:12:16.667Z,4
2016-11-27T01:13:28.422Z,4
2016-11-27T01:14:41.667Z,4
2016-11-27T01:15:54.915Z,4
2016-11-27T01:17:07.097Z,4
2016-11-27T01:18:19.201Z,4
2016-11-27T01:19:31.080Z,4
2016-11-27T01:20:43.112Z,4
2016-11-27T01:21:54.640Z,4
2016-11-27T01:23:07.534Z,4
2016-11-27T01:24:19.846Z,4
2016-11-27T01:25:31.058Z,4
2016-11-27T01:26:43.353Z,4
2016-11-27T01:27:55.101Z,4
2016-11-27T01:29:05.306Z,4
2016-11-27T01:30:16.756Z,4
2016-11-27T01:31:30.023Z,4
2016-11-27T01:32:41.999Z,4
2016-11-27T01:33:54.291Z,4
2016-11-27T01:35:06.410Z,4
2016-11-27T01:36:17.566Z,4
2016-11-27T01:37:30.210Z,4
2016-11-27T01:38:42.324Z,4
2016-11-27T01:39:53.676Z,4
2016-11-27T01:41:06.413Z,4
2016-11-27T01:42:19.682Z,4
2016-11-27T01:43:31.783Z,4
2016-11-27T01:44:43.563Z,4
2016-11-27T01:45:56.313Z,4
2016-11-27T01:47:08.503Z,4
2016-11-27T01:48:19.004Z,4
2016-11-27T01:49:31.342Z,4
2016-11-27T01:50:43.198Z,8
2016-11-27T01:51:54.865Z,4
2016-11-27T01:53:06.844Z,4
2016-11-27T01:54:18.644Z,8
2016-11-27T01:55:30.777Z,8
2016-11-27T01:56:42.450Z,4
2016-11-27T01:57:53.972Z,4
2016-11-27T01:59:05.256Z,4
2016-11-27T02:00:17.354Z,4
2016-11-27T02:01:30.151Z,4
2016-11-27T02:02:42.593Z,4
2016-11-27T02:03:53.769Z,4
2016-11-27T02:05:05.429Z,4
2016-11-27T02:06:17.456Z,4
2016-11-27T02:07:29.187Z,4
2016-11-27T02:08:40.529Z,4
2016-11-27T02:09:52.206Z,4
2016-11-27T02:11:04.620Z,4
2016-11-27T02:12:16.775Z,4
2016-11-27T02:13:28.793Z,4
2016-11-27T02:14:41.372Z,4
2016-11-27T02:15:54.563Z,4
2016-11-27T02:17:04.531Z,4
2016-11-27T02:18:17.179Z,4
2016-11-27T02:19:28.902Z,4
2016-11-27T02:20:39.760Z,4
2016-11-27T02:21:50.901Z,4
2016-11-27T02:23:02.860Z,4
2016-11-27T02:24:14.320Z,4
2016-11-27T02:25:26.087Z,4
2016-11-27T02:26:38.851Z,4
2016-11-27T02:27:51.726Z,4
2016-11-27T02:29:03.454Z,4
2016-11-27T02:30:14.982Z,4
2016-11-27T02:31:26.585Z,4
2016-11-27T02:32:38.744Z,4
2016-11-27T02:33:50.914Z,4
2016-11-27T02:35:03.021Z,4
2016-11-27T02:36:14.659Z,4
2016-11-27T02:37:26.332Z,4
2016-11-27T02:38:38.376Z,4
2016-11-27T02:39:50.851Z,4
2016-11-27T02:41:03.138Z,4
2016-11-27T02:42:15.391Z,4
2016-11-27T02:43:25.443Z,4
2016-11-27T02:44:37.281Z,4
2016-11-27T02:45:49.511Z,4
2016-11-27T02:47:01.839Z,4
2016-11-27T02:48:13.797Z,4
2016-11-27T02:49:24.941Z,4
2016-11-27T02:50:37.753Z,4
2016-11-27T02:51:50.079Z,4
2016-11-27T02:53:01.348Z,4
2016-11-27T02:54:13.015Z,4
2016-11-27T02:55:24.703Z,4
2016-11-27T02:56:36.785Z,4
2016-11-27T02:57:49.422Z,4
2016-11-27T02:59:01.712Z,4
2016-11-27T03:00:15.094Z,4
2016-11-27T03:01:27.034Z,4
2016-11-27T03:02:38.646Z,4
2016-11-27T03:03:51.463Z,4
2016-11-27T03:05:04.165Z,4
2016-11-27T03:06:16.891Z,4
2016-11-27T03:07:28.603Z,4
2016-11-27T03:08:40.694Z,4
2016-11-27T03:09:52.306Z,4
2016-11-27T03:11:05.061Z,4
2016-11-27T03:12:16.956Z,4
2016-11-27T03:13:28.715Z,4
2016-11-27T03:14:40.186Z,4
2016-11-27T03:15:52.437Z,4
2016-11-27T03:17:03.736Z,4
2016-11-27T03:18:16.404Z,4
2016-11-27T03:19:26.503Z,4
2016-11-27T03:20:37.837Z,4
2016-11-27T03:21:49.889Z,4
2016-11-27T03:23:00.632Z,4
2016-11-27T03:24:13.470Z,4
2016-11-27T03:25:24.196Z,4
2016-11-27T03:26:37.020Z,4
2016-11-27T03:27:48.369Z,4
2016-11-27T03:28:59.444Z,4
2016-11-27T03:30:12.031Z,4
2016-11-27T03:31:23.984Z,4
2016-11-27T03:32:37.274Z,4
2016-11-27T03:33:47.976Z,4
2016-11-27T03:35:00.193Z,4
2016-11-27T03:36:13.093Z,4
2016-11-27T03:37:24.445Z,4
2016-11-27T03:38:35.417Z,4
2016-11-27T03:39:47.036Z,4
2016-11-27T03:40:58.803Z,4
2016-11-27T03:42:11.260Z,4
2016-11-27T03:43:23.127Z,4
2016-11-27T03:44:34.645Z,4
2016-11-27T03:45:45.432Z,4
2016-11-27T03:46:56.738Z,4
2016-11-27T03:48:08.505Z,4
2016-11-27T03:49:19.367Z,4
2016-11-27T03:50:30.409Z,4
2016-11-27T03:51:42.651Z,4
2016-11-27T03:52:55.003Z,4
2016-11-27T03:54:07.117Z,4
2016-11-27T03:55:19.329Z,4
2016-11-27T03:56:31.216Z,4
2016-11-27T03:57:44.091Z,4
2016-11-27T03:58:56.091Z,4
2016-11-27T04:00:07.718Z,4
2016-11-27T04:01:19.631Z,4
2016-11-27T04:02:31.070Z,4
2016-11-27T04:03:43.282Z,4
2016-11-27T04:04:55.076Z,4
2016-11-27T04:06:07.236Z,4
2016-11-27T04:07:19.267Z,4
2016-11-27T04:08:31.688Z,4
2016-11-27T04:09:43.443Z,4
2016-11-27T04:10:55.506Z,4
2016-11-27T04:12:06.777Z,4
2016-11-27T04:13:19.299Z,4
2016-11-27T04:14:30.732Z,8
2016-11-27T04:15:42.373Z,4
2016-11-27T04:16:53.779Z,4
2016-11-27T04:18:05.469Z,4
2016-11-27T04:19:16.013Z,4
2016-11-27T04:20:27.158Z,4
2016-11-27T04:21:37.803Z,4
2016-11-27T04:22:48.076Z,4
2016-11-27T04:23:59.267Z,4
2016-11-27T04:25:10.148Z,4
2016-11-27T04:26:21.069Z,4
2016-11-27T04:27:33.317Z,4
2016-11-27T04:28:45.538Z,4
2016-11-27T04:29:57.191Z,4
2016-11-27T04:31:07.588Z,4
2016-11-27T04:32:18.621Z,4
2016-11-27T04:33:30.040Z,4
2016-11-27T04:34:42.297Z,4
2016-11-27T04:35:54.538Z,4
2016-11-27T04:37:05.363Z,4
2016-11-27T04:38:18.123Z,4
2016-11-27T04:39:30.156Z,4
2016-11-27T04:40:41.532Z,4
2016-11-27T04:41:53.675Z,4
2016-11-27T04:43:05.705Z,4
2016-11-27T04:44:17.778Z,4
2016-11-27T04:45:31.154Z,4
2016-11-27T04:46:42.480Z,4
2016-11-27T04:47:53.032Z,4
2016-11-27T04:49:04.766Z,4
2016-11-27T04:50:16.180Z,4
2016-11-27T04:51:28.966Z,4
2016-11-27T04:52:40.423Z,4
2016-11-27T04:53:53.282Z,4
2016-11-27T04:55:05.512Z,4
2016-11-27T04:56:16.501Z,4
2016-11-27T04:57:29.276Z,4
2016-11-27T04:58:42.515Z,4
2016-11-27T04:59:54.440Z,8
2016-11-27T05:01:05.634Z,4
2016-11-27T05:02:17.436Z,4
2016-11-27T05:03:29.553Z,4
2016-11-27T05:04:41.392Z,4
2016-11-27T05:05:51.718Z,4
2016-11-27T05:07:03.302Z,4
2016-11-27T05:08:13.983Z,4
2016-11-27T05:09:26.627Z,4
2016-11-27T05:10:38.152Z,4
2016-11-27T05:11:49.694Z,4
2016-11-27T05:13:01.848Z,4
2016-11-27T05:14:13.582Z,4
2016-11-27T05:15:24.651Z,4
2016-11-27T05:16:35.803Z,4
2016-11-27T05:17:48.648Z,4
2016-11-27T05:19:00.152Z,4
2016-11-27T05:20:11.335Z,4
2016-11-27T05:21:23.970Z,4
2016-11-27T05:22:36.794Z,4
2016-11-27T05:23:48.242Z,4
2016-11-27T05:25:00.093Z,4
2016-11-27T05:26:11.791Z,4
2016-11-27T05:27:24.057Z,4
2016-11-27T05:28:36.059Z,4
2016-11-27T05:29:47.611Z,4
2016-11-27T05:31:00.532Z,4
2016-11-27T05:32:13.272Z,4
2016-11-27T05:33:25.552Z,4
2016-11-27T05:34:37.800Z,4
2016-11-27T05:35:49.758Z,4
2016-11-27T05:37:00.735Z,4
2016-11-27T05:38:13.160Z,4
2016-11-27T05:39:24.790Z,4
2016-11-27T05:40:36.310Z,4
2016-11-27T05:41:47.960Z,4
2016-11-27T05:43:00.041Z,4
2016-11-27T05:44:12.781Z,4
2016-11-27T05:45:24.519Z,4
2016-11-27T05:46:36.131Z,4
2016-11-27T05:47:47.910Z,4
2016-11-27T05:48:59.599Z,4
2016-11-27T05:50:10.833Z,4
2016-11-27T05:51:22.594Z,4
2016-11-27T05:52:33.590Z,4
2016-11-27T05:53:46.338Z,4
2016-11-27T05:54:58.347Z,4
2016-11-27T05:56:10.167Z,4
2016-11-27T05:57:22.448Z,4
2016-11-27T05:58:35.158Z,4
2016-11-27T05:59:47.048Z,4
2016-11-27T06:00:58.155Z,4
2016-11-27T06:02:08.717Z,4
2016-11-27T06:03:20.310Z,4
2016-11-27T06:04:32.639Z,4
2016-11-27T06:05:45.400Z,4
2016-11-27T06:06:58.239Z,4
2016-11-27T06:08:09.872Z,4
2016-11-27T06:09:20.352Z,4
2016-11-27T06:10:31.097Z,4
2016-11-27T06:11:41.567Z,4
2016-11-27T06:12:52.257Z,4
2016-11-27T06:14:03.484Z,4
2016-11-27T06:15:14.553Z,4
2016-11-27T06:16:27.308Z,4
2016-11-27T06:17:39.124Z,4
2016-11-27T06:18:51.822Z,4
2016-11-27T06:20:02.238Z,4
2016-11-27T06:21:13.783Z,4
2016-11-27T06:22:24.718Z,4
2016-11-27T06:23:36.013Z,4
2016-11-27T06:24:48.231Z,4
2016-11-27T06:25:58.909Z,4
2016-11-27T06:27:10.234Z,8
2016-11-27T06:28:22.007Z,8
2016-11-27T06:29:33.690Z,8
2016-11-27T06:30:45.059Z,8
2016-11-27T06:31:57.491Z,8
2016-11-27T06:33:09.951Z,8
2016-11-27T06:34:21.840Z,8
2016-11-27T06:35:35.058Z,8
2016-11-27T06:36:46.473Z,8
2016-11-27T06:37:57.865Z,12
2016-11-27T06:39:09.047Z,12
2016-11-27T06:40:20.259Z,12
2016-11-27T06:41:32.849Z,12
2016-11-27T06:42:43.910Z,16
2016-11-27T06:43:55.990Z,16
2016-11-27T06:45:08.337Z,20
2016-11-27T06:46:19.153Z,20
2016-11-27T06:47:31.459Z,28
2016-11-27T06:48:42.157Z,28
2016-11-27T06:49:54.092Z,36
2016-11-27T06:51:06.295Z,44
2016-11-27T06:52:18.602Z,52
2016-11-27T06:53:30.632Z,56
2016-11-27T06:54:42.680Z,64
2016-11-27T06:55:55.363Z,72
2016-11-27T06:57:07.128Z,80
2016-11-27T06:58:19.859Z,92
2016-11-27T06:59:30.223Z,100
2016-11-27T07:00:42.281Z,112
2016-11-27T07:01:54.048Z,128
2016-11-27T07:03:06.751Z,140
2016-11-27T07:04:18.978Z,156
2016-11-27T07:05:31.032Z,172
2016-11-27T07:06:42.862Z,192
2016-11-27T07:07:54.740Z,216
2016-11-27T07:09:07.008Z,232
2016-11-27T07:10:19.351Z,252
2016-11-27T07:11:32.576Z,264
2016-11-27T07:12:45.751Z,272
2016-11-27T07:13:59.004Z,280
2016-11-27T07:15:10.475Z,300
2016-11-27T07:16:22.432Z,324
2016-11-27T07:17:34.385Z,352
2016-11-27T07:18:46.671Z,384
2016-11-27T07:19:57.692Z,436
2016-11-27T07:21:08.839Z,536
2016-11-27T07:22:20.033Z,640
2016-11-27T07:23:30.779Z,728
2016-11-27T07:24:42.449Z,808
2016-11-27T07:25:55.714Z,864
2016-11-27T07:27:08.381Z,920
2016-11-27T07:28:20.591Z,964
2016-11-27T07:29:32.579Z,1008
2016-11-27T07:30:43.854Z,1056
2016-11-27T07:31:54.941Z,1120
2016-11-27T07:33:06.123Z,1192
2016-11-27T07:34:18.194Z,1256
2016-11-27T07:35:30.269Z,1328
2016-11-27T07:36:41.663Z,1408
2016-11-27T07:37:53.671Z,1476
2016-11-27T07:39:05.636Z,1512
2016-11-27T07:40:17.275Z,1488
2016-11-27T07:41:29.854Z,1460
2016-11-27T07:42:41.547Z,1444
2016-11-27T07:43:53.896Z,1572
2016-11-27T07:45:04.558Z,1756
2016-11-27T07:46:16.176Z,1896
2016-11-27T07:47:28.290Z,1904
2016-11-27T07:48:40.367Z,1824
2016-11-27T07:49:51.208Z,1832
2016-11-27T07:51:02.164Z,1952
2016-11-27T07:52:14.961Z,2080
2016-11-27T07:53:28.015Z,2248
2016-11-27T07:54:40.657Z,2548
2016-11-27T07:55:51.387Z,2692
2016-11-27T07:57:03.620Z,2324
2016-11-27T07:58:15.872Z,2096
2016-11-27T07:59:28.158Z,1988
2016-11-27T08:00:41.378Z,2092
2016-11-27T08:01:53.247Z,2088
2016-11-27T08:03:04.963Z,2140
2016-11-27T08:04:15.639Z,2284
2016-11-27T08:05:26.815Z,2528
2016-11-27T08:06:38.558Z,2440
2016-11-27T08:07:49.999Z,2520
2016-11-27T08:09:01.692Z,2664
2016-11-27T08:10:13.970Z,2808
2016-11-27T08:11:27.208Z,2956
2016-11-27T08:12:38.223Z,3068
2016-11-27T08:13:51.435Z,3128
2016-11-27T08:15:03.213Z,3208
2016-11-27T08:16:14.903Z,3388
2016-11-27T08:17:27.150Z,3472
2016-11-27T08:18:38.545Z,3408
2016-11-27T08:19:51.234Z,2812
2016-11-27T08:21:03.854Z,2516
2016-11-27T08:22:15.800Z,2048
2016-11-27T08:23:27.719Z,1992
2016-11-27T08:24:39.209Z,2020
2016-11-27T08:25:51.078Z,1976
2016-11-27T08:27:01.541Z,1968
2016-11-27T08:28:14.651Z,2240
2016-11-27T08:29:26.511Z,3440
2016-11-27T08:30:38.536Z,3564
2016-11-27T08:31:50.387Z,3640
2016-11-27T08:33:02.018Z,2964
2016-11-27T08:34:14.113Z,2352
2016-11-27T08:35:26.334Z,2384
2016-11-27T08:36:38.790Z,2436
2016-11-27T08:37:51.041Z,2596
2016-11-27T08:39:04.216Z,2948
2016-11-27T08:40:15.909Z,2740
2016-11-27T08:41:27.437Z,3984
2016-11-27T08:42:39.061Z,4004
2016-11-27T08:43:52.342Z,4104
2016-11-27T08:45:03.829Z,3488
2016-11-27T08:46:16.971Z,3492
2016-11-27T08:47:28.359Z,4004
2016-11-27T08:48:40.362Z,3440
2016-11-27T08:49:51.306Z,3688
2016-11-27T08:51:02.728Z,4248
2016-11-27T08:52:15.434Z,4592
2016-11-27T08:53:26.076Z,4344
2016-11-27T08:54:38.171Z,3332
2016-11-27T08:55:49.775Z,3676
2016-11-27T08:57:01.787Z,5088
2016-11-27T08:58:11.700Z,5132
2016-11-27T08:59:24.359Z,5228
2016-11-27T09:00:35.653Z,3680
2016-11-27T09:01:48.488Z,3608
2016-11-27T09:03:00.010Z,3352
2016-11-27T09:04:12.180Z,3204
2016-11-27T09:05:23.644Z,3040
2016-11-27T09:06:36.813Z,3028
2016-11-27T09:07:48.604Z,3200
2016-11-27T09:09:01.247Z,3224
2016-11-27T09:10:13.891Z,3184
2016-11-27T09:11:25.453Z,3224
2016-11-27T09:12:36.315Z,3224
2016-11-27T09:13:48.354Z,3080
2016-11-27T09:14:59.691Z,3096
2016-11-27T09:16:11.956Z,3268
2016-11-27T09:17:22.829Z,5736
2016-11-27T09:18:35.029Z,7508
2016-11-27T09:19:46.993Z,7304
2016-11-27T09:20:59.348Z,4272
2016-11-27T09:22:10.284Z,6648
2016-11-27T09:23:21.387Z,3824
2016-11-27T09:24:32.987Z,5428
2016-11-27T09:25:44.695Z,4172
2016-11-27T09:26:56.560Z,4048
2016-11-27T09:28:06.928Z,4248
2016-11-27T09:29:18.511Z,4824
2016-11-27T09:30:30.405Z,4496
2016-11-27T09:31:42.675Z,4564
2016-11-27T09:32:54.618Z,4804
2016-11-27T09:34:06.305Z,5132
2016-11-27T09:35:17.584Z,5672
2016-11-27T09:36:29.522Z,5180
2016-11-27T09:37:41.668Z,4620
2016-11-27T09:38:53.040Z,5504
2016-11-27T09:40:04.991Z,5944
2016-11-27T09:41:15.364Z,5732
2016-11-27T09:42:26.690Z,4836
2016-11-27T09:43:38.006Z,3620
2016-11-27T09:44:49.788Z,3392
2016-11-27T09:46:00.908Z,3396
2016-11-27T09:47:11.971Z,3428
2016-11-27T09:48:23.585Z,3604
2016-11-27T09:49:36.294Z,4064
2016-11-27T09:50:47.549Z,4644
2016-11-27T09:52:00.200Z,5316
2016-11-27T09:53:12.497Z,6020
2016-11-27T09:54:23.955Z,6644
2016-11-27T09:55:35.834Z,6896
2016-11-27T09:56:47.998Z,7116
2016-11-27T09:57:59.058Z,7448
2016-11-27T09:59:10.953Z,7856
2016-11-27T10:00:21.900Z,8904
2016-11-27T10:01:33.019Z,8308
2016-11-27T10:02:45.673Z,8252
2016-11-27T10:03:56.488Z,7620
2016-11-27T10:05:07.928Z,7028
2016-11-27T10:06:18.474Z,6600
2016-11-27T10:07:29.756Z,5920
2016-11-27T10:08:41.425Z,6168
2016-11-27T10:09:54.115Z,6768
2016-11-27T10:11:04.971Z,6700
2016-11-27T10:12:17.067Z,6196
2016-11-27T10:13:28.398Z,5620
2016-11-27T10:14:40.962Z,5488
2016-11-27T10:15:52.116Z,5788
2016-11-27T10:17:03.241Z,5300
2016-11-27T10:18:14.455Z,4800
2016-11-27T10:19:26.002Z,4540
2016-11-27T10:20:37.384Z,4296
2016-11-27T10:21:47.737Z,4264
2016-11-27T10:22:59.305Z,4004
2016-11-27T10:24:10.366Z,4064
2016-11-27T10:25:22.095Z,4280
2016-11-27T10:26:32.023Z,4020
2016-11-27T10:27:43.978Z,3860
2016-11-27T10:28:55.883Z,3800
2016-11-27T10:30:08.134Z,3872
2016-11-27T10:31:18.462Z,4016
2016-11-27T10:32:31.118Z,4188
2016-11-27T10:33:43.811Z,4192
2016-11-27T10:34:54.898Z,4168
2016-11-27T10:36:07.298Z,4188
2016-11-27T10:37:19.623Z,4244
2016-11-27T10:38:31.360Z,4412
2016-11-27T10:39:43.639Z,4548
2016-11-27T10:40:56.262Z,4580
2016-11-27T10:42:08.570Z,4488
2016-11-27T10:43:19.290Z,4516
2016-11-27T10:44:30.081Z,4696
2016-11-27T10:45:41.069Z,4892
2016-11-27T10:46:53.182Z,5028
2016-11-27T10:48:04.487Z,5148
2016-11-27T10:49:15.297Z,5268
2016-11-27T10:50:26.335Z,5384
2016-11-27T10:51:37.259Z,5440
2016-11-27T10:52:49.604Z,5440
2016-11-27T10:54:00.039Z,5432
2016-11-27T10:55:10.651Z,5436
2016-11-27T10:56:22.446Z,5456
2016-11-27T10:57:33.564Z,5548
2016-11-27T10:58:45.800Z,5640
2016-11-27T10:59:58.042Z,5708
2016-11-27T11:01:10.027Z,5784
2016-11-27T11:02:22.302Z,5852
2016-11-27T11:03:32.030Z,5884
2016-11-27T11:04:43.296Z,5868
2016-11-27T11:05:55.248Z,5812
2016-11-27T11:07:06.982Z,5756
2016-11-27T11:08:18.581Z,5696
2016-11-27T11:09:30.197Z,5616
2016-11-27T11:10:41.934Z,5616
2016-11-27T11:11:54.708Z,5816
2016-11-27T11:13:05.155Z,5948
2016-11-27T11:14:16.470Z,5920
2016-11-27T11:15:28.132Z,5788
2016-11-27T11:16:38.986Z,5528
2016-11-27T11:17:50.094Z,5428
2016-11-27T11:19:00.687Z,5580
2016-11-27T11:20:10.795Z,6096
2016-11-27T11:21:21.203Z,6468
2016-11-27T11:22:33.381Z,6504
2016-11-27T11:23:44.782Z,6236
2016-11-27T11:24:56.022Z,6000
2016-11-27T11:26:07.824Z,5936
2016-11-27T11:27:19.348Z,5908
2016-11-27T11:28:31.712Z,5860
2016-11-27T11:29:43.864Z,5904
2016-11-27T11:30:53.821Z,5876
2016-11-27T11:32:05.579Z,5836
2016-11-27T11:33:17.279Z,5872
2016-11-27T11:34:30.055Z,5952
2016-11-27T11:35:41.115Z,5980
2016-11-27T11:36:52.562Z,5932
2016-11-27T11:38:04.675Z,5704
2016-11-27T11:39:15.574Z,5444
2016-11-27T11:40:27.535Z,5196
2016-11-27T11:41:39.506Z,5020
2016-11-27T11:42:51.567Z,5060
2016-11-27T11:44:04.099Z,5260
2016-11-27T11:45:16.685Z,5512
2016-11-27T11:46:28.290Z,5724
2016-11-27T11:47:40.859Z,5812
2016-11-27T11:48:51.917Z,5780
2016-11-27T11:50:02.574Z,5712
2016-11-27T11:51:14.323Z,5720
2016-11-27T11:52:25.631Z,5768
2016-11-27T11:53:37.935Z,5900
2016-11-27T11:54:49.329Z,6076
2016-11-27T11:56:00.544Z,6236
2016-11-27T11:57:12.658Z,6348
2016-11-27T11:58:24.535Z,6420
2016-11-27T11:59:36.694Z,6356
2016-11-27T12:00:48.765Z,6372
2016-11-27T12:02:00.863Z,6332
2016-11-27T12:03:12.123Z,6408
2016-11-27T12:04:23.141Z,6624
2016-11-27T12:05:33.795Z,6972
2016-11-27T12:06:46.332Z,7216
2016-11-27T12:07:57.179Z,7228
2016-11-27T12:09:10.387Z,7036
2016-11-27T12:10:22.213Z,6872
2016-11-27T12:11:34.338Z,6808
2016-11-27T12:12:44.684Z,6864
2016-11-27T12:13:56.115Z,6840
2016-11-27T12:15:07.042Z,6632
2016-11-27T12:16:19.431Z,6232
2016-11-27T12:17:31.037Z,5800
2016-11-27T12:18:42.530Z,5336
2016-11-27T12:19:54.543Z,4916
2016-11-27T12:21:07.100Z,4724
2016-11-27T12:22:17.633Z,4692
2016-11-27T12:23:29.705Z,4628
2016-11-27T12:24:41.514Z,4528
2016-11-27T12:25:52.451Z,4404
2016-11-27T12:27:03.133Z,4324
2016-11-27T12:28:15.033Z,4328
2016-11-27T12:29:26.420Z,4416
2016-11-27T12:30:38.230Z,4548
2016-11-27T12:31:50.084Z,4548
2016-11-27T12:33:02.380Z,4392
2016-11-27T12:34:15.173Z,4208
2016-11-27T12:35:26.712Z,4100
2016-11-27T12:36:39.702Z,4044
2016-11-27T12:37:50.773Z,4064
2016-11-27T12:39:02.744Z,4116
2016-11-27T12:40:13.320Z,4152
2016-11-27T12:41:25.378Z,4208
2016-11-27T12:42:36.990Z,4272
2016-11-27T12:43:48.785Z,4308
2016-11-27T12:44:59.424Z,4276
2016-11-27T12:46:11.390Z,4164
2016-11-27T12:47:23.596Z,3936
2016-11-27T12:48:35.304Z,3736
2016-11-27T12:49:47.638Z,3508
2016-11-27T12:50:59.933Z,3392
2016-11-27T12:52:12.637Z,3432
2016-11-27T12:53:24.554Z,3356
2016-11-27T12:54:36.624Z,3560
2016-11-27T12:55:48.773Z,3764
2016-11-27T12:57:00.821Z,3796
2016-11-27T12:58:12.281Z,3616
2016-11-27T12:59:24.123Z,3348
2016-11-27T13:00:36.744Z,3180
2016-11-27T13:01:47.914Z,3236
2016-11-27T13:02:59.481Z,3312
2016-11-27T13:04:10.659Z,3208
2016-11-27T13:05:23.896Z,2932
2016-11-27T13:06:35.997Z,2728
2016-11-27T13:07:46.727Z,2764
2016-11-27T13:08:58.072Z,3280
2016-11-27T13:10:09.182Z,3548
2016-11-27T13:11:20.215Z,3344
2016-11-27T13:12:30.955Z,3124
2016-11-27T13:13:42.502Z,3052
2016-11-27T13:14:53.922Z,3100
2016-11-27T13:16:05.997Z,3356
2016-11-27T13:17:16.764Z,3668
2016-11-27T13:18:28.816Z,3964
2016-11-27T13:19:40.997Z,3976
2016-11-27T13:20:52.437Z,3908
2016-11-27T13:22:03.481Z,3828
2016-11-27T13:23:14.609Z,3752
2016-11-27T13:24:26.403Z,3708
2016-11-27T13:25:36.765Z,3696
2016-11-27T13:26:49.464Z,3500
2016-11-27T13:28:00.639Z,3280
2016-11-27T13:29:12.788Z,3108
2016-11-27T13:30:24.570Z,3052
2016-11-27T13:31:36.203Z,3056
2016-11-27T13:32:46.672Z,3076
2016-11-27T13:33:57.527Z,3004
2016-11-27T13:35:09.939Z,2824
2016-11-27T13:36:22.604Z,2588
2016-11-27T13:37:34.695Z,2440
2016-11-27T13:38:46.019Z,2372
2016-11-27T13:39:58.509Z,2260
2016-11-27T13:41:09.945Z,2104
2016-11-27T13:42:20.972Z,1900
2016-11-27T13:43:33.062Z,1668
2016-11-27T13:44:45.776Z,1448
2016-11-27T13:45:57.759Z,1268
2016-11-27T13:47:09.943Z,1140
2016-11-27T13:48:22.226Z,1088
2016-11-27T13:49:33.965Z,1072
2016-11-27T13:50:44.909Z,1060
2016-11-27T13:51:56.255Z,1040
2016-11-27T13:53:08.898Z,1036
2016-11-27T13:54:20.592Z,1068
2016-11-27T13:55:32.631Z,1148
2016-11-27T13:56:45.762Z,1280
2016-11-27T13:57:58.436Z,1476
2016-11-27T13:59:09.125Z,1736
2016-11-27T14:00:21.016Z,1980
2016-11-27T14:01:32.554Z,2112
2016-11-27T14:02:44.548Z,2128
2016-11-27T14:03:55.449Z,2108
2016-11-27T14:05:07.031Z,2136
2016-11-27T14:06:19.342Z,2212
2016-11-27T14:07:29.430Z,2120
2016-11-27T14:08:40.914Z,1876
2016-11-27T14:09:53.179Z,1764
2016-11-27T14:11:05.930Z,1808
2016-11-27T14:12:18.081Z,1888
2016-11-27T14:13:30.174Z,1872
2016-11-27T14:14:41.368Z,1876
2016-11-27T14:15:52.997Z,1952
2016-11-27T14:17:05.081Z,1968
2016-11-27T14:18:15.484Z,2004
2016-11-27T14:19:27.009Z,1992
2016-11-27T14:20:38.367Z,1984
2016-11-27T14:21:50.293Z,1960
2016-11-27T14:23:00.803Z,1896
2016-11-27T14:24:12.504Z,1868
2016-11-27T14:25:22.672Z,1820
2016-11-27T14:26:35.250Z,1740
2016-11-27T14:27:47.766Z,1604
2016-11-27T14:28:59.700Z,1388
2016-11-27T14:30:10.910Z,1312
2016-11-27T14:31:21.470Z,1384
2016-11-27T14:32:33.002Z,1500
2016-11-27T14:33:44.872Z,1648
2016-11-27T14:34:56.901Z,1764
2016-11-27T14:36:09.437Z,1712
2016-11-27T14:37:20.633Z,1736
2016-11-27T14:38:32.445Z,1676
2016-11-27T14:39:45.625Z,1708
2016-11-27T14:40:57.466Z,1764
2016-11-27T14:42:09.434Z,1832
2016-11-27T14:43:20.791Z,1868
2016-11-27T14:44:32.421Z,1856
2016-11-27T14:45:43.900Z,1896
2016-11-27T14:46:55.548Z,1916
2016-11-27T14:48:08.301Z,1932
2016-11-27T14:49:21.488Z,1920
2016-11-27T14:50:33.428Z,1848
2016-11-27T14:51:45.542Z,1832
2016-11-27T14:52:56.554Z,1728
2016-11-27T14:54:07.442Z,1664
2016-11-27T14:55:17.890Z,1608
2016-11-27T14:56:31.077Z,1548
2016-11-27T14:57:41.612Z,1444
2016-11-27T14:58:52.984Z,1420
2016-11-27T15:00:06.199Z,1620
2016-11-27T15:01:18.148Z,1608
2016-11-27T15:02:28.677Z,1516
2016-11-27T15:03:40.842Z,1408
2016-11-27T15:04:52.417Z,1364
2016-11-27T15:06:04.274Z,1420
2016-11-27T15:07:16.160Z,1516
2016-11-27T15:08:28.151Z,1464
2016-11-27T15:09:39.452Z,1280
2016-11-27T15:10:51.196Z,1104
2016-11-27T15:12:02.920Z,884
2016-11-27T15:13:14.653Z,664
2016-11-27T15:14:27.411Z,476
2016-11-27T15:15:38.629Z,488
2016-11-27T15:16:49.951Z,536
2016-11-27T15:18:01.378Z,544
2016-11-27T15:19:13.581Z,604
2016-11-27T15:20:24.838Z,684
2016-11-27T15:21:36.011Z,724
2016-11-27T15:22:48.537Z,736
2016-11-27T15:23:59.080Z,716
2016-11-27T15:25:09.686Z,704
2016-11-27T15:26:21.337Z,748
2016-11-27T15:27:33.304Z,864
2016-11-27T15:28:45.424Z,1004
2016-11-27T15:29:56.345Z,1092
2016-11-27T15:31:08.647Z,1096
2016-11-27T15:32:20.024Z,996
2016-11-27T15:33:30.993Z,872
2016-11-27T15:34:43.728Z,728
2016-11-27T15:35:55.494Z,660
2016-11-27T15:37:05.627Z,672
2016-11-27T15:38:18.305Z,684
2016-11-27T15:39:29.615Z,724
2016-11-27T15:40:40.679Z,720
2016-11-27T15:41:51.495Z,664
2016-11-27T15:43:02.569Z,596
2016-11-27T15:44:14.514Z,564
2016-11-27T15:45:25.541Z,560
2016-11-27T15:46:36.594Z,568
2016-11-27T15:47:47.638Z,544
2016-11-27T15:48:58.802Z,496
2016-11-27T15:50:11.481Z,468
2016-11-27T15:51:22.102Z,456
2016-11-27T15:52:33.972Z,456
2016-11-27T15:53:45.714Z,440
2016-11-27T15:54:56.558Z,408
2016-11-27T15:56:08.890Z,344
2016-11-27T15:57:20.653Z,244
2016-11-27T15:58:32.627Z,176
2016-11-27T15:59:45.161Z,160
2016-11-27T16:00:54.621Z,160
2016-11-27T16:02:06.033Z,164
2016-11-27T16:03:17.848Z,152
2016-11-27T16:04:30.212Z,136
2016-11-27T16:05:42.839Z,120
2016-11-27T16:06:54.051Z,100
2016-11-27T16:08:05.618Z,88
2016-11-27T16:09:17.164Z,80
2016-11-27T16:10:28.512Z,68
2016-11-27T16:11:41.149Z,64
2016-11-27T16:12:52.789Z,56
2016-11-27T16:14:04.860Z,56
2016-11-27T16:15:16.927Z,48
2016-11-27T16:16:28.430Z,48
2016-11-27T16:17:40.143Z,40
2016-11-27T16:18:51.324Z,36
2016-11-27T16:20:04.121Z,32
2016-11-27T16:21:15.524Z,32
2016-11-27T16:22:27.071Z,28
2016-11-27T16:23:39.336Z,24
2016-11-27T16:24:52.059Z,24
2016-11-27T16:26:03.664Z,20
2016-11-27T16:27:16.425Z,20
2016-11-27T16:28:29.557Z,16
2016-11-27T16:29:41.849Z,12
2016-11-27T16:30:53.659Z,12
2016-11-27T16:32:05.646Z,12
2016-11-27T16:33:16.360Z,8
2016-11-27T16:34:28.229Z,12
2016-11-27T16:35:39.399Z,8
2016-11-27T16:36:52.468Z,8
2016-11-27T16:38:05.131Z,8
2016-11-27T16:39:16.047Z,4
2016-11-27T16:40:26.913Z,4
2016-11-27T16:41:38.441Z,8